createdAt,value
2023-03-10T00:02:04.209Z,0.38
2023-03-10T00:07:05.569Z,0.50
2023-03-10T00:12:07.322Z,0.20
2023-03-10T00:17:08.694Z,0.95
2023-03-10T00:22:11.141Z,0.43
2023-03-10T00:27:12.461Z,0.20
2023-03-10T00:32:13.856Z,0.30
2023-03-10T00:37:15.990Z,0.45
2023-03-10T00:42:17.330Z,0.40
2023-03-10T00:47:18.684Z,0.30
2023-03-10T00:52:20.075Z,0.20
2023-03-10T00:57:21.417Z,0.20
2023-03-10T01:02:22.759Z,0.10
2023-03-10T01:07:24.087Z,0.20
2023-03-10T01:12:25.443Z,0.95
2023-03-10T01:17:26.824Z,0.20
2023-03-10T01:22:28.216Z,0.20
2023-03-10T01:27:29.527Z,0.10
2023-03-10T01:32:30.970Z,0.20
2023-03-10T01:37:32.423Z,0.30
2023-03-10T01:42:34.086Z,0.30
2023-03-10T01:47:36.563Z,0.20
2023-03-10T01:52:37.996Z,0.40
2023-03-10T01:57:46.283Z,0.10
2023-03-10T02:02:56.824Z,0.17
2023-03-10T02:07:59.530Z,0.20
2023-03-10T02:13:00.910Z,0.20
2023-03-10T02:18:05.785Z,0.28
2023-03-10T02:23:10.191Z,0.10
2023-03-10T02:28:11.770Z,0.10
2023-03-10T02:33:31.838Z,0.10
2023-03-10T02:38:33.278Z,0.10
2023-03-10T02:43:34.742Z,0.10
2023-03-10T02:48:38.917Z,0.15
2023-03-10T02:53:40.338Z,0.50
2023-03-10T02:58:41.997Z,0.20
2023-03-10T03:03:43.437Z,0.10
2023-03-10T03:08:44.874Z,0.20
2023-03-10T03:13:46.248Z,0.10
2023-03-10T03:18:47.615Z,0.30
2023-03-10T03:23:49.033Z,0.15
2023-03-10T03:28:52.044Z,0.30
2023-03-10T03:33:53.544Z,0.20
2023-03-10T03:38:54.919Z,0.93
2023-03-10T03:43:56.281Z,0.38
2023-03-10T03:48:57.650Z,0.50
2023-03-10T03:53:59.003Z,0.55
2023-03-10T03:59:00.394Z,0.60
2023-03-10T04:04:01.848Z,0.50
2023-03-10T04:09:03.932Z,0.40
2023-03-10T04:14:05.321Z,0.45
2023-03-10T04:19:07.671Z,0.40
2023-03-10T04:24:09.683Z,0.50
2023-03-10T04:29:11.110Z,0.68
2023-03-10T04:34:12.479Z,0.40
2023-03-10T04:39:14.939Z,0.20
2023-03-10T04:44:29.856Z,0.50
2023-03-10T04:49:32.133Z,0.30
2023-03-10T04:54:33.508Z,0.60
2023-03-10T04:59:35.234Z,0.60
2023-03-10T05:04:36.698Z,0.57
2023-03-10T05:09:38.431Z,0.40
2023-03-10T05:14:39.811Z,0.70
2023-03-10T05:19:41.206Z,0.30
2023-03-10T05:24:42.969Z,0.30
2023-03-10T05:29:44.533Z,0.30
2023-03-10T05:34:45.885Z,0.30
2023-03-10T05:39:47.402Z,0.40
2023-03-10T05:44:48.734Z,0.40
2023-03-10T05:49:50.091Z,0.60
2023-03-10T05:54:51.653Z,0.60
2023-03-10T05:59:53.140Z,0.75
2023-03-10T06:04:54.510Z,0.50
2023-03-10T06:09:55.894Z,0.73
2023-03-10T06:14:57.369Z,0.30
2023-03-10T06:19:58.861Z,0.50
2023-03-10T06:25:00.377Z,0.40
2023-03-10T06:30:02.816Z,0.50
2023-03-10T06:35:04.679Z,0.50
2023-03-10T06:40:08.187Z,0.43
2023-03-10T06:45:13.506Z,0.50
2023-03-10T06:50:14.960Z,0.50
2023-03-10T06:55:16.947Z,1.13
2023-03-10T07:00:19.355Z,0.50
2023-03-10T07:05:23.012Z,0.80
2023-03-10T07:10:24.459Z,0.40
2023-03-10T07:15:26.590Z,0.60
2023-03-10T07:20:28.033Z,0.85
2023-03-10T07:25:29.388Z,0.60
2023-03-10T07:30:31.429Z,0.60
2023-03-10T07:35:35.430Z,0.70
2023-03-10T07:40:40.166Z,0.50
2023-03-10T07:45:41.560Z,0.95
2023-03-10T07:50:42.915Z,1.45
2023-03-10T07:55:44.261Z,1.08
2023-03-10T08:00:45.712Z,0.85
2023-03-10T08:05:47.399Z,0.70
2023-03-10T08:10:48.769Z,0.52
2023-03-10T08:15:50.135Z,1.48
2023-03-10T08:20:51.726Z,1.05
2023-03-10T08:25:53.069Z,0.57
2023-03-10T08:31:04.309Z,0.75
2023-03-10T08:36:11.011Z,0.75
2023-03-10T08:41:22.900Z,0.73
2023-03-10T08:46:26.801Z,0.52
2023-03-10T08:51:28.915Z,0.68
2023-03-10T08:56:30.776Z,0.57
2023-03-10T09:01:34.899Z,0.45
2023-03-10T09:06:36.822Z,0.60
2023-03-10T09:11:39.939Z,0.60
2023-03-10T09:16:41.370Z,0.45
2023-03-10T09:21:42.894Z,0.20
2023-03-10T09:26:44.962Z,0.30
2023-03-10T09:31:48.239Z,0.20
2023-03-10T09:36:49.746Z,0.20
2023-03-10T09:42:09.876Z,0.20
2023-03-10T09:47:46.259Z,0.30
2023-03-10T09:52:57.213Z,0.40
2023-03-10T09:57:58.926Z,0.30
2023-03-10T10:03:20.566Z,0.70
2023-03-10T10:08:29.391Z,0.30
2023-03-10T10:13:30.879Z,0.52
2023-03-10T10:18:42.455Z,0.50
2023-03-10T10:23:47.770Z,0.45
2023-03-10T10:28:58.231Z,0.47
2023-03-10T10:34:04.989Z,0.28
2023-03-10T10:39:27.900Z,0.20
2023-03-10T10:44:30.180Z,0.20
2023-03-10T10:49:36.429Z,0.20
2023-03-10T10:54:51.840Z,0.40
2023-03-10T10:59:53.235Z,0.30
2023-03-10T11:04:54.646Z,0.50
2023-03-10T11:09:57.670Z,0.20
2023-03-10T11:15:22.117Z,0.30
2023-03-10T11:20:45.206Z,0.20
2023-03-10T11:26:24.053Z,0.30
2023-03-10T11:31:46.946Z,0.20
2023-03-10T11:36:58.141Z,0.28
2023-03-10T11:42:06.851Z,0.20
2023-03-10T11:47:42.109Z,0.10
2023-03-10T11:52:44.863Z,0.10
2023-03-10T11:57:50.393Z,0.10
2023-03-10T12:03:08.223Z,0.10
2023-03-10T12:08:10.786Z,0.10
2023-03-10T12:13:25.264Z,0.20
2023-03-10T12:18:28.064Z,0.10
2023-03-10T12:23:38.731Z,0.30
2023-03-10T12:28:40.329Z,0.17
2023-03-10T12:33:44.793Z,0.10
2023-03-10T12:39:25.362Z,0.10
2023-03-10T12:44:49.412Z,0.20
2023-03-10T12:50:12.856Z,0.10
2023-03-10T12:55:25.468Z,0.10
2023-03-10T13:00:33.122Z,0.15
2023-03-10T13:05:39.913Z,0.63
2023-03-10T13:10:41.453Z,0.30
2023-03-10T13:15:43.012Z,0.82
2023-03-10T13:20:45.441Z,0.10
2023-03-10T13:25:58.803Z,0.75
2023-03-10T13:31:18.236Z,0.15
2023-03-10T13:36:31.424Z,0.10
2023-03-10T13:41:37.432Z,0.20
2023-03-10T13:46:38.869Z,0.20
2023-03-10T13:51:40.369Z,0.30
2023-03-10T13:56:43.330Z,0.10
2023-03-10T14:01:53.769Z,0.20
2023-03-10T14:07:10.887Z,0.25
2023-03-10T14:12:13.476Z,0.30
2023-03-10T14:17:35.114Z,0.25
2023-03-10T14:22:41.208Z,0.22
2023-03-10T14:27:46.397Z,0.20
2023-03-10T14:32:48.129Z,0.28
2023-03-10T14:37:50.866Z,0.32
2023-03-10T14:42:54.447Z,0.40
2023-03-10T14:47:58.729Z,0.32
2023-03-10T14:53:00.176Z,0.70
2023-03-10T14:58:04.440Z,0.40
2023-03-10T15:03:06.440Z,0.30
2023-03-10T15:08:11.034Z,0.17
2023-03-10T15:13:13.593Z,0.20
2023-03-10T15:18:18.589Z,0.10
2023-03-10T15:23:22.226Z,0.10
2023-03-10T15:28:23.917Z,0.10
2023-03-10T15:33:25.359Z,0.00
2023-03-10T15:38:26.774Z,0.00
2023-03-10T15:43:28.112Z,0.00
2023-03-10T15:48:29.609Z,0.00
2023-03-10T15:53:31.065Z,0.30
2023-03-10T15:58:32.685Z,0.00
2023-03-10T16:03:38.071Z,0.00
2023-03-10T16:08:40.007Z,0.00
2023-03-10T16:56:45.412Z,0.10
2023-03-10T17:01:47.476Z,0.03
2023-03-10T17:06:49.047Z,0.17
2023-03-10T17:11:55.074Z,0.20
2023-03-10T17:16:57.095Z,0.10
2023-03-10T17:21:59.195Z,0.52
2023-03-10T17:27:00.788Z,0.05
2023-03-10T17:32:02.263Z,0.20
2023-03-10T17:37:03.704Z,0.10
2023-03-10T17:42:05.291Z,0.17
2023-03-10T17:47:06.700Z,0.10
2023-03-10T17:52:08.358Z,0.10
2023-03-10T17:57:09.970Z,0.15
2023-03-10T18:02:12.394Z,0.10
2023-03-10T18:07:14.169Z,0.10
2023-03-10T18:12:16.174Z,0.10
2023-03-10T18:17:17.519Z,0.10
2023-03-10T18:22:18.914Z,0.10
2023-03-10T18:27:20.246Z,0.10
2023-03-10T18:32:22.257Z,0.08
2023-03-10T18:37:24.305Z,0.00
2023-03-10T18:42:26.796Z,0.00
2023-03-10T18:47:28.133Z,0.00
2023-03-10T18:52:32.898Z,0.10
2023-03-10T18:57:34.280Z,0.10
2023-03-10T19:02:35.716Z,0.10
2023-03-10T19:07:37.306Z,0.20
2023-03-10T19:12:39.282Z,0.25
2023-03-10T19:57:17.476Z,0.90
2023-03-10T20:02:19.173Z,0.70
2023-03-10T20:07:20.596Z,1.00
2023-03-10T20:12:22.329Z,0.82
2023-03-10T20:17:23.681Z,1.38
2023-03-10T20:22:25.086Z,1.35
2023-03-10T20:27:26.987Z,1.23
2023-03-10T20:32:28.397Z,1.25
2023-03-10T20:37:29.837Z,0.90
2023-03-10T21:14:25.456Z,1.15
2023-03-10T21:19:27.555Z,0.68
2023-03-10T21:24:29.009Z,0.70
2023-03-10T21:29:31.065Z,0.50
2023-03-10T21:34:32.406Z,0.45
2023-03-10T21:39:33.767Z,0.52
2023-03-10T21:44:35.103Z,0.40
2023-03-10T21:49:37.082Z,0.70
2023-03-10T21:54:38.514Z,0.40
2023-03-10T21:59:39.900Z,0.17
2023-03-10T22:04:41.277Z,0.30
2023-03-10T22:09:42.671Z,0.50
2023-03-10T22:14:44.041Z,0.60
2023-03-10T22:19:49.008Z,0.50
2023-03-10T22:24:50.673Z,0.55
2023-03-10T22:29:52.067Z,0.50
2023-03-10T22:34:53.499Z,0.40
2023-03-10T22:39:55.881Z,0.32
2023-03-10T22:44:57.336Z,0.50
2023-03-10T22:49:58.656Z,0.50
2023-03-10T22:55:00.197Z,0.30
2023-03-10T23:00:01.532Z,0.20
2023-03-10T23:05:03.020Z,0.30
2023-03-10T23:10:07.362Z,0.57
2023-03-10T23:15:15.421Z,0.50
2023-03-10T23:20:27.478Z,0.30
2023-03-10T23:25:33.011Z,0.30
2023-03-10T23:30:36.413Z,0.30
2023-03-10T23:35:37.741Z,0.50
2023-03-10T23:40:39.118Z,0.40
2023-03-10T23:45:41.549Z,0.30
2023-03-10T23:50:44.768Z,0.30
2023-03-10T23:55:47.299Z,0.30
